Time;durP1;ratioP1;P1;durP2;ratioP2;P2;SDS_P1;SDS_P2;PMS_P1;PMS_P2;Temp;Humidity;BMP_temperature;BMP_pressure;BME280_temperature;BME280_humidity;BME280_pressure;Samples;Min_cycle;Max_cycle;Signal;HPM_P1;HPM_P2
2023/12/15 10:29:19;;;;;;;27.60;9.98;;;;;;;;;;10454581;27;20589;-78
2023/12/15 10:34:27;;;;;;;29.95;10.65;;;;;;;;;;10377768;28;20225;-75
2023/12/15 10:39:28;;;;;;;32.00;11.18;;;;;;;;;;10359620;28;20212;-75
2023/12/15 10:44:30;;;;;;;27.90;12.23;;;;;;;;;;10399659;28;20207;-75
2023/12/15 10:49:31;;;;;;;32.65;12.85;;;;;;;;;;10375081;28;20301;-74
2023/12/15 10:54:33;;;;;;;31.40;11.40;;;;;;;;;;10382130;28;20212;-75
2023/12/15 10:59:34;;;;;;;30.38;11.50;;;;;;;;;;10372043;28;20796;-76
2023/12/15 11:04:35;;;;;;;29.92;12.15;;;;;;;;;;10390217;28;20252;-74
2023/12/15 11:09:36;;;;;;;36.25;13.10;;;;;;;;;;10362914;28;20662;-75
2023/12/15 11:14:38;;;;;;;33.47;13.00;;;;;;;;;;10398965;28;20277;-75
2023/12/15 11:19:40;;;;;;;22.45;9.27;;;;;;;;;;10406900;28;20724;-75
2023/12/15 11:24:41;;;;;;;17.88;9.48;;;;;;;;;;10373907;28;20232;-75
2023/12/15 11:29:42;;;;;;;18.60;9.55;;;;;;;;;;10390306;28;20207;-74
2023/12/15 11:34:43;;;;;;;15.63;8.85;;;;;;;;;;10400495;28;20227;-74
2023/12/15 11:39:46;;;;;;;18.40;8.27;;;;;;;;;;10375775;28;20209;-76
2023/12/15 11:44:47;;;;;;;19.63;9.90;;;;;;;;;;10345844;28;20228;-74
2023/12/15 11:49:49;;;;;;;23.33;8.73;;;;;;;;;;10322162;28;20694;-75
2023/12/15 11:54:50;;;;;;;15.55;9.02;;;;;;;;;;10353084;28;20225;-76
2023/12/15 11:59:51;;;;;;;17.92;8.23;;;;;;;;;;10341695;28;20670;-76
2023/12/15 12:04:54;;;;;;;12.88;8.23;;;;;;;;;;10359479;28;20220;-74
2023/12/15 12:09:55;;;;;;;19.13;7.85;;;;;;;;;;10369242;28;20215;-76
2023/12/15 12:15:01;;;;;;;15.38;8.40;;;;;;;;;;10330037;28;20729;-75
2023/12/15 12:20:06;;;;;;;18.80;6.95;;;;;;;;;;10330640;28;20212;-76
2023/12/15 12:25:08;;;;;;;15.73;6.40;;;;;;;;;;10336035;28;20241;-74
2023/12/15 12:30:18;;;;;;;15.57;6.75;;;;;;;;;;10316024;28;20813;-75
2023/12/15 12:35:19;;;;;;;15.27;5.75;;;;;;;;;;10327776;28;20229;-74
2023/12/15 12:40:20;;;;;;;11.38;6.35;;;;;;;;;;10339262;28;20208;-75
2023/12/15 12:45:21;;;;;;;10.02;5.88;;;;;;;;;;10357200;28;20262;-74
2023/12/15 12:50:22;;;;;;;10.63;5.80;;;;;;;;;;10354043;28;20221;-76
2023/12/15 12:55:23;;;;;;;16.48;6.63;;;;;;;;;;10326358;28;20311;-75
2023/12/15 13:00:24;;;;;;;18.05;7.10;;;;;;;;;;10331264;28;20200;-75
2023/12/15 13:05:25;;;;;;;17.58;7.18;;;;;;;;;;10335903;28;20220;-75
2023/12/15 13:10:26;;;;;;;12.43;6.90;;;;;;;;;;10358685;28;20227;-76
2023/12/15 13:15:27;;;;;;;19.38;7.10;;;;;;;;;;10328006;28;20867;-74
2023/12/15 13:20:28;;;;;;;13.73;7.63;;;;;;;;;;10333765;28;20216;-76
2023/12/15 13:25:29;;;;;;;18.65;8.35;;;;;;;;;;10323702;28;20227;-77
2023/12/15 13:30:31;;;;;;;15.10;8.02;;;;;;;;;;10331987;28;20219;-78
2023/12/15 13:35:32;;;;;;;15.07;8.02;;;;;;;;;;10346940;28;20722;-76
2023/12/15 13:40:33;;;;;;;23.08;8.98;;;;;;;;;;10344821;28;20269;-78
2023/12/15 13:45:34;;;;;;;20.80;8.75;;;;;;;;;;10339516;28;20215;-78
2023/12/15 13:50:35;;;;;;;15.85;8.23;;;;;;;;;;10346705;28;20293;-76
2023/12/15 13:55:36;;;;;;;17.13;7.97;;;;;;;;;;10328420;28;20274;-74
2023/12/15 14:00:37;;;;;;;16.13;7.28;;;;;;;;;;10343481;28;20216;-76
2023/12/15 14:05:38;;;;;;;21.65;8.60;;;;;;;;;;10325963;28;20224;-75
2023/12/15 14:10:39;;;;;;;17.02;8.20;;;;;;;;;;10357272;28;20211;-75
2023/12/15 14:15:40;;;;;;;12.68;6.80;;;;;;;;;;10332633;28;20220;-75
2023/12/15 14:20:41;;;;;;;16.63;8.02;;;;;;;;;;10340549;28;20218;-76
2023/12/15 14:25:43;;;;;;;21.80;8.07;;;;;;;;;;10334595;28;20235;-76
2023/12/15 14:30:44;;;;;;;15.85;7.55;;;;;;;;;;10322829;28;20595;-75
2023/12/15 14:35:45;;;;;;;17.02;7.80;;;;;;;;;;10317043;28;20521;-75
2023/12/15 14:40:46;;;;;;;16.52;8.55;;;;;;;;;;10338906;28;20401;-74
2023/12/15 14:45:47;;;;;;;18.30;7.88;;;;;;;;;;10321210;28;20227;-74
2023/12/15 14:50:49;;;;;;;18.17;7.53;;;;;;;;;;10341635;28;20216;-75
2023/12/15 14:55:50;;;;;;;26.02;8.63;;;;;;;;;;10332801;28;20246;-75
2023/12/15 15:00:51;;;;;;;16.00;7.70;;;;;;;;;;10371850;28;20314;-75
2023/12/15 15:05:52;;;;;;;10.27;7.45;;;;;;;;;;10331281;28;20930;-77
2023/12/15 15:10:54;;;;;;;16.13;8.40;;;;;;;;;;10305557;28;20216;-73
2023/12/15 15:15:55;;;;;;;22.35;7.85;;;;;;;;;;10314735;28;20942;-74
2023/12/15 15:20:56;;;;;;;14.25;7.70;;;;;;;;;;10316937;28;20242;-74
2023/12/15 15:25:57;;;;;;;20.20;7.38;;;;;;;;;;10348788;28;20805;-73
2023/12/15 15:30:58;;;;;;;11.27;7.03;;;;;;;;;;10317773;28;20295;-75
2023/12/15 15:36:00;;;;;;;16.92;7.97;;;;;;;;;;10331435;28;20247;-74
2023/12/15 15:41:07;;;;;;;15.93;6.82;;;;;;;;;;10347547;28;20220;-76
2023/12/15 15:46:17;;;;;;;13.95;7.40;;;;;;;;;;10315126;28;23192;-75
2023/12/15 15:51:21;;;;;;;16.30;7.68;;;;;;;;;;10329648;28;20228;-74
2023/12/15 15:56:22;;;;;;;16.33;6.95;;;;;;;;;;10316336;28;20231;-75
2023/12/15 16:01:24;;;;;;;19.00;8.25;;;;;;;;;;10317602;28;20212;-77
2023/12/15 16:06:25;;;;;;;19.00;8.25;;;;;;;;;;10316149;28;20220;-75
2023/12/15 16:11:26;;;;;;;19.52;7.32;;;;;;;;;;10323800;28;20224;-75
2023/12/15 16:16:27;;;;;;;20.50;9.20;;;;;;;;;;10327017;28;20335;-74
2023/12/15 16:21:28;;;;;;;18.65;8.35;;;;;;;;;;10360222;28;20315;-75
2023/12/15 16:26:29;;;;;;;13.05;7.18;;;;;;;;;;10348921;28;20292;-75
2023/12/15 16:31:30;;;;;;;16.70;7.30;;;;;;;;;;10352847;28;20218;-75
2023/12/15 16:36:31;;;;;;;16.73;6.97;;;;;;;;;;10359613;28;20219;-76
2023/12/15 16:41:32;;;;;;;14.80;6.57;;;;;;;;;;10302840;28;20222;-76
2023/12/15 16:46:34;;;;;;;15.23;7.85;;;;;;;;;;10340611;28;20295;-76
2023/12/15 16:51:39;;;;;;;23.73;10.35;;;;;;;;;;10353550;28;20279;-74
2023/12/15 16:56:40;;;;;;;21.90;9.55;;;;;;;;;;10340324;28;20229;-75
2023/12/15 17:01:41;;;;;;;35.33;17.05;;;;;;;;;;10331019;28;20223;-74
2023/12/15 17:06:42;;;;;;;25.95;12.07;;;;;;;;;;10349567;28;20215;-76
2023/12/15 17:11:43;;;;;;;17.05;10.20;;;;;;;;;;10327619;28;20223;-79
2023/12/15 17:16:45;;;;;;;11.40;6.07;;;;;;;;;;10346116;28;20718;-77
2023/12/15 17:21:46;;;;;;;17.02;7.07;;;;;;;;;;10314982;28;20710;-76
2023/12/15 17:26:47;;;;;;;18.98;6.68;;;;;;;;;;10338965;28;20325;-75
2023/12/15 17:31:48;;;;;;;12.43;6.82;;;;;;;;;;10315048;28;20227;-74
2023/12/15 17:36:55;;;;;;;22.05;8.40;;;;;;;;;;10306882;28;20224;-76
2023/12/15 17:41:56;;;;;;;17.23;8.35;;;;;;;;;;10333569;28;20215;-75
2023/12/15 17:46:57;;;;;;;18.55;6.00;;;;;;;;;;10349020;28;20235;-76
2023/12/15 17:51:58;;;;;;;10.88;5.28;;;;;;;;;;10327560;28;20216;-75
2023/12/15 17:56:59;;;;;;;14.60;6.03;;;;;;;;;;10327787;28;20696;-75
2023/12/15 18:02:01;;;;;;;16.25;6.93;;;;;;;;;;10326031;28;20622;-78
2023/12/15 18:07:03;;;;;;;11.88;6.05;;;;;;;;;;10319008;28;20708;-78
2023/12/15 18:12:04;;;;;;;8.23;5.72;;;;;;;;;;10342030;28;20215;-78
2023/12/15 18:17:05;;;;;;;18.08;6.75;;;;;;;;;;10363366;28;20760;-78
2023/12/15 18:22:09;;;;;;;14.23;6.95;;;;;;;;;;10328105;28;20217;-79
2023/12/15 18:27:10;;;;;;;17.80;7.57;;;;;;;;;;10350069;28;20590;-77
2023/12/15 18:32:13;;;;;;;16.85;7.60;;;;;;;;;;10338166;28;20204;-76
2023/12/15 18:37:15;;;;;;;21.15;6.50;;;;;;;;;;10334081;28;20217;-77
2023/12/15 18:42:16;;;;;;;14.88;7.03;;;;;;;;;;10344904;28;20208;-77
2023/12/15 18:47:17;;;;;;;14.93;7.25;;;;;;;;;;10314604;28;20225;-77
2023/12/15 18:52:19;;;;;;;18.90;6.65;;;;;;;;;;10306662;28;20647;-78
2023/12/15 18:57:20;;;;;;;14.35;7.30;;;;;;;;;;10341172;28;20319;-77
2023/12/15 19:02:21;;;;;;;12.77;7.68;;;;;;;;;;10341914;28;20406;-78
2023/12/15 19:07:25;;;;;;;25.08;8.38;;;;;;;;;;10331243;28;21017;-77
2023/12/15 19:12:31;;;;;;;28.42;9.02;;;;;;;;;;10365100;28;20215;-77
2023/12/15 19:17:32;;;;;;;25.42;8.07;;;;;;;;;;10328809;28;20229;-76
2023/12/15 19:22:33;;;;;;;24.17;8.30;;;;;;;;;;10322034;28;20237;-78
2023/12/15 19:27:34;;;;;;;21.50;8.63;;;;;;;;;;10359315;28;20309;-76
2023/12/15 19:32:36;;;;;;;27.42;9.30;;;;;;;;;;10335725;28;20219;-75
2023/12/15 19:37:37;;;;;;;20.25;9.63;;;;;;;;;;10317626;28;20220;-76
2023/12/15 19:42:38;;;;;;;22.35;9.27;;;;;;;;;;10337617;28;20221;-75
2023/12/15 19:47:39;;;;;;;18.02;9.00;;;;;;;;;;10336244;28;20721;-75
2023/12/15 19:52:43;;;;;;;18.15;8.27;;;;;;;;;;10372044;28;20239;-78
2023/12/15 19:57:44;;;;;;;27.08;8.32;;;;;;;;;;10331492;28;20225;-76
2023/12/15 20:02:47;;;;;;;28.65;10.07;;;;;;;;;;10348923;28;20235;-76
2023/12/15 20:07:48;;;;;;;24.08;9.80;;;;;;;;;;10313641;28;20231;-76
2023/12/15 20:12:49;;;;;;;23.38;8.77;;;;;;;;;;10363448;28;20270;-74
2023/12/15 20:17:50;;;;;;;17.75;9.32;;;;;;;;;;10317334;28;20213;-76
2023/12/15 20:22:51;;;;;;;24.35;9.48;;;;;;;;;;10342999;28;20212;-76
2023/12/15 20:27:52;;;;;;;22.30;10.20;;;;;;;;;;10368471;28;20227;-78
2023/12/15 20:32:53;;;;;;;21.80;9.07;;;;;;;;;;10333034;28;20208;-76
2023/12/15 20:37:56;;;;;;;21.88;9.52;;;;;;;;;;10343432;28;20299;-78
2023/12/15 20:42:57;;;;;;;18.88;8.85;;;;;;;;;;10322849;28;20282;-76
2023/12/15 20:47:58;;;;;;;20.73;8.70;;;;;;;;;;10352916;28;20634;-78
2023/12/15 20:52:59;;;;;;;16.35;8.70;;;;;;;;;;10347013;28;20709;-75
2023/12/15 20:58:01;;;;;;;16.35;8.32;;;;;;;;;;10353037;28;20271;-78
2023/12/15 21:03:02;;;;;;;21.90;9.05;;;;;;;;;;10328985;28;20212;-74
2023/12/15 21:08:03;;;;;;;21.42;8.80;;;;;;;;;;10344415;28;20278;-77
2023/12/15 21:13:05;;;;;;;21.63;9.60;;;;;;;;;;10341290;28;20286;-76
2023/12/15 21:18:06;;;;;;;21.42;8.15;;;;;;;;;;10325755;28;20259;-77
2023/12/15 21:23:07;;;;;;;26.40;9.63;;;;;;;;;;10335481;28;20208;-75
2023/12/15 21:28:08;;;;;;;33.55;9.60;;;;;;;;;;10357737;28;20318;-76
2023/12/15 21:33:09;;;;;;;20.30;8.13;;;;;;;;;;10332417;28;20216;-77
2023/12/15 21:38:10;;;;;;;26.42;8.52;;;;;;;;;;10363606;28;20216;-76
2023/12/15 21:43:11;;;;;;;22.55;9.00;;;;;;;;;;10361476;28;20215;-76
2023/12/15 21:48:12;;;;;;;22.65;8.30;;;;;;;;;;10380480;28;20213;-78
2023/12/15 21:53:16;;;;;;;29.10;9.80;;;;;;;;;;10354918;28;20218;-76
2023/12/15 21:58:17;;;;;;;15.88;9.05;;;;;;;;;;10324607;28;20221;-76
2023/12/15 22:03:18;;;;;;;31.08;9.05;;;;;;;;;;10378546;28;20277;-76
2023/12/15 22:08:19;;;;;;;23.40;9.23;;;;;;;;;;10322003;28;20212;-75
2023/12/15 22:13:20;;;;;;;33.10;10.13;;;;;;;;;;10336278;28;20215;-76
2023/12/15 22:18:23;;;;;;;25.40;9.27;;;;;;;;;;10368366;28;20224;-76
2023/12/15 22:23:24;;;;;;;30.33;10.82;;;;;;;;;;10332253;28;20203;-75
2023/12/15 22:28:25;;;;;;;31.60;11.25;;;;;;;;;;10318806;28;20231;-75
2023/12/15 22:33:27;;;;;;;33.65;10.77;;;;;;;;;;10343731;28;20215;-75
2023/12/15 22:38:28;;;;;;;32.58;12.27;;;;;;;;;;10367571;28;20212;-76
2023/12/15 22:43:29;;;;;;;23.90;10.63;;;;;;;;;;10347317;28;20698;-76
2023/12/15 22:48:30;;;;;;;32.13;11.00;;;;;;;;;;10375943;28;20215;-78
2023/12/15 22:53:31;;;;;;;32.20;10.98;;;;;;;;;;10369121;28;20228;-76
2023/12/15 22:58:32;;;;;;;32.47;11.50;;;;;;;;;;10331267;28;20212;-77
2023/12/15 23:03:33;;;;;;;30.98;11.50;;;;;;;;;;10321529;28;20221;-77
2023/12/15 23:08:34;;;;;;;29.30;9.95;;;;;;;;;;10335313;28;20228;-76
2023/12/15 23:13:36;;;;;;;27.33;10.60;;;;;;;;;;10319657;28;20236;-73
2023/12/15 23:18:37;;;;;;;23.10;11.18;;;;;;;;;;10330517;28;20224;-75
2023/12/15 23:23:38;;;;;;;18.35;9.38;;;;;;;;;;10351640;28;20624;-77
2023/12/15 23:28:39;;;;;;;25.13;9.10;;;;;;;;;;10345941;28;20217;-74
2023/12/15 23:33:40;;;;;;;22.02;8.75;;;;;;;;;;10339438;28;20694;-75
2023/12/15 23:38:41;;;;;;;32.28;10.20;;;;;;;;;;10371687;28;20220;-76
2023/12/15 23:43:42;;;;;;;22.33;10.07;;;;;;;;;;10335136;28;20226;-76
2023/12/15 23:48:43;;;;;;;24.92;9.23;;;;;;;;;;10335203;28;20809;-74
2023/12/15 23:53:44;;;;;;;28.65;9.32;;;;;;;;;;10342515;28;20208;-75
2023/12/15 23:58:45;;;;;;;21.95;9.40;;;;;;;;;;10373760;28;20216;-74
